Aérodrome :
LOGIN :

S'inscrire | Disclaimer

   EN    FR    IT 

 










Légende :    VFR   VFR Marginal   IFR   IFR Intensif   IFR Très Intensif
Visi : 
Plafond : 
>= 8 km
>= 3000ft
5 à 8 km
1000 à 3000 ft
1500m à 5 km
500 à 1000 ft
800 à 1500m
200 à 500 ft
< 800m
< 200 ft
Symboles :   Orages  Brouillard  Fortes neiges  Fortes précipitations  Vent > 20 kt
SIGMETs :   Divers  Orages  Givrage  Turbulence  Onde Orograph.  Cendres Volcan.







- Altitude de l'aérodrome : 614 ft
- Code IATA : CRL


EBCI - Charleroi

DERNIER METAR :
  • 201450Z 29006KT 250V330 7000 BKN008 BKN012 12/10 Q1011 TEMPO 4000 BR BKN004

METARs EXPIRÉS :
  • 201420Z 31006KT 260V350 7000 BKN008 BKN012 12/10 Q1011 TEMPO 4000 BR BKN004
  • 201350Z 29007KT 250V340 7000 BKN008 BKN012 12/10 Q1011 TEMPO 4000 BR BKN004
  • 201320Z 31005KT 240V360 6000 BKN006 BKN012 12/10 Q1011 TEMPO 4000 BR BKN004
  • 201250Z 32005KT 280V020 6000 BKN006 BKN012 12/10 Q1011 TEMPO 4000 BR BKN004
  • 201220Z 30005KT 250V340 6000 BKN006 BKN012 12/10 Q1010 TEMPO 4000 BR BKN004

TAF TAF EBCI
Valide du 20 à 12h jusqu'au 21 à 18h UTC


201110Z 2012/2118 32008KT 7000 -DZ SCT003 BKN006
BECMG 2014/2016 SCT006 BKN012
TEMPO 2017/2020 SCT010 BKN017
BECMG 2020/2022 4000 BR SCT003 BKN004
BECMG 2109/2111 9999 NSW SCT015
Pas de NOTAMs connus pour ce terrain.



MET'MAP, la Météo Aéronautique d'un coup d'oeil ! - Copyright ORBIFLY Décembre 2007 - Disclaimer

ORBIFLY MET'MAP TEAM :

Programmation & Développement : Alexandra Zaïnal
Conception & Développement : Baudouin d'Aumeries
Co-Programmation & Développement : Marc-Olivier Méhu
Soutien technique & logistique : Manuel Goepfert

Contact : metmap@orbifly.com




SOURCES & CREDITS :

   NOAA